sensor_id;sensor_type;location;lat;lon;timestamp;P1;durP1;ratioP1;P2;durP2;ratioP2
6197;SDS011;3132;42.622;23.328;2023-04-16T00:00:00;9.60;;;8.90;;
6197;SDS011;3132;42.622;23.328;2023-04-16T00:02:28;9.20;;;8.60;;
6197;SDS011;3132;42.622;23.328;2023-04-16T00:04:53;8.33;;;7.73;;
6197;SDS011;3132;42.622;23.328;2023-04-16T00:07:18;9.90;;;9.20;;
6197;SDS011;3132;42.622;23.328;2023-04-16T00:09:44;9.00;;;8.50;;
6197;SDS011;3132;42.622;23.328;2023-04-16T00:12:10;8.87;;;8.27;;
6197;SDS011;3132;42.622;23.328;2023-04-16T00:14:35;10.03;;;9.37;;
6197;SDS011;3132;42.622;23.328;2023-04-16T00:17:01;10.63;;;9.93;;
6197;SDS011;3132;42.622;23.328;2023-04-16T00:19:26;10.43;;;9.83;;
6197;SDS011;3132;42.622;23.328;2023-04-16T00:21:51;9.80;;;9.10;;
6197;SDS011;3132;42.622;23.328;2023-04-16T00:24:17;9.90;;;9.20;;
6197;SDS011;3132;42.622;23.328;2023-04-16T00:26:42;8.87;;;8.47;;
6197;SDS011;3132;42.622;23.328;2023-04-16T00:29:09;9.80;;;9.40;;
6197;SDS011;3132;42.622;23.328;2023-04-16T00:31:35;9.60;;;9.00;;
6197;SDS011;3132;42.622;23.328;2023-04-16T00:34:01;10.60;;;10.07;;
6197;SDS011;3132;42.622;23.328;2023-04-16T00:36:26;8.70;;;8.27;;
6197;SDS011;3132;42.622;23.328;2023-04-16T00:38:52;10.43;;;9.73;;
6197;SDS011;3132;42.622;23.328;2023-04-16T00:41:18;10.57;;;9.97;;
6197;SDS011;3132;42.622;23.328;2023-04-16T00:43:44;10.07;;;9.47;;
6197;SDS011;3132;42.622;23.328;2023-04-16T00:46:10;10.33;;;9.83;;
6197;SDS011;3132;42.622;23.328;2023-04-16T00:48:36;10.57;;;10.07;;
6197;SDS011;3132;42.622;23.328;2023-04-16T00:51:03;10.20;;;9.70;;
6197;SDS011;3132;42.622;23.328;2023-04-16T00:53:30;9.40;;;8.80;;
6197;SDS011;3132;42.622;23.328;2023-04-16T00:55:56;9.63;;;9.13;;
6197;SDS011;3132;42.622;23.328;2023-04-16T00:58:22;9.53;;;9.07;;
6197;SDS011;3132;42.622;23.328;2023-04-16T01:00:48;9.40;;;8.90;;
6197;SDS011;3132;42.622;23.328;2023-04-16T01:03:13;10.33;;;9.57;;
6197;SDS011;3132;42.622;23.328;2023-04-16T01:05:38;9.50;;;9.00;;
6197;SDS011;3132;42.622;23.328;2023-04-16T01:08:04;10.17;;;9.67;;
6197;SDS011;3132;42.622;23.328;2023-04-16T01:10:30;10.13;;;9.40;;
6197;SDS011;3132;42.622;23.328;2023-04-16T01:12:56;9.80;;;9.33;;
6197;SDS011;3132;42.622;23.328;2023-04-16T01:15:21;9.83;;;9.33;;
6197;SDS011;3132;42.622;23.328;2023-04-16T01:17:46;10.23;;;9.60;;
6197;SDS011;3132;42.622;23.328;2023-04-16T01:20:12;8.97;;;8.57;;
6197;SDS011;3132;42.622;23.328;2023-04-16T01:22:37;8.97;;;8.57;;
6197;SDS011;3132;42.622;23.328;2023-04-16T01:25:03;9.53;;;8.97;;
6197;SDS011;3132;42.622;23.328;2023-04-16T01:27:28;10.33;;;9.70;;
6197;SDS011;3132;42.622;23.328;2023-04-16T01:29:55;9.53;;;8.97;;
6197;SDS011;3132;42.622;23.328;2023-04-16T01:32:21;10.57;;;9.73;;
6197;SDS011;3132;42.622;23.328;2023-04-16T01:34:46;10.23;;;9.57;;
6197;SDS011;3132;42.622;23.328;2023-04-16T01:37:11;9.50;;;9.10;;
6197;SDS011;3132;42.622;23.328;2023-04-16T01:39:37;9.53;;;9.03;;
6197;SDS011;3132;42.622;23.328;2023-04-16T01:42:02;9.77;;;9.27;;
6197;SDS011;3132;42.622;23.328;2023-04-16T01:44:28;10.73;;;10.00;;
6197;SDS011;3132;42.622;23.328;2023-04-16T01:46:54;11.53;;;10.83;;
6197;SDS011;3132;42.622;23.328;2023-04-16T01:49:20;11.97;;;11.17;;
6197;SDS011;3132;42.622;23.328;2023-04-16T01:51:46;10.00;;;9.23;;
6197;SDS011;3132;42.622;23.328;2023-04-16T01:54:11;10.17;;;9.37;;
6197;SDS011;3132;42.622;23.328;2023-04-16T01:56:37;9.57;;;8.93;;
6197;SDS011;3132;42.622;23.328;2023-04-16T01:59:02;10.37;;;9.47;;
6197;SDS011;3132;42.622;23.328;2023-04-16T02:01:27;9.77;;;9.27;;
6197;SDS011;3132;42.622;23.328;2023-04-16T02:03:53;11.00;;;10.33;;
6197;SDS011;3132;42.622;23.328;2023-04-16T02:06:18;9.50;;;9.00;;
6197;SDS011;3132;42.622;23.328;2023-04-16T02:08:44;10.50;;;9.70;;
6197;SDS011;3132;42.622;23.328;2023-04-16T02:11:09;11.77;;;10.97;;
6197;SDS011;3132;42.622;23.328;2023-04-16T02:13:34;10.83;;;10.03;;
6197;SDS011;3132;42.622;23.328;2023-04-16T02:16:00;10.47;;;9.77;;
6197;SDS011;3132;42.622;23.328;2023-04-16T02:18:26;9.93;;;9.43;;
6197;SDS011;3132;42.622;23.328;2023-04-16T02:20:52;10.00;;;9.40;;
6197;SDS011;3132;42.622;23.328;2023-04-16T02:23:17;9.10;;;8.57;;
6197;SDS011;3132;42.622;23.328;2023-04-16T02:25:43;10.90;;;10.13;;
6197;SDS011;3132;42.622;23.328;2023-04-16T02:28:10;9.67;;;9.20;;
6197;SDS011;3132;42.622;23.328;2023-04-16T02:30:40;9.77;;;9.20;;
6197;SDS011;3132;42.622;23.328;2023-04-16T02:33:06;9.60;;;9.00;;
6197;SDS011;3132;42.622;23.328;2023-04-16T02:35:33;12.03;;;9.10;;
6197;SDS011;3132;42.622;23.328;2023-04-16T02:37:59;10.40;;;9.60;;
6197;SDS011;3132;42.622;23.328;2023-04-16T02:40:25;11.60;;;10.70;;
6197;SDS011;3132;42.622;23.328;2023-04-16T02:42:51;11.10;;;10.20;;
6197;SDS011;3132;42.622;23.328;2023-04-16T02:45:17;9.60;;;9.10;;
6197;SDS011;3132;42.622;23.328;2023-04-16T02:47:42;10.10;;;9.60;;
6197;SDS011;3132;42.622;23.328;2023-04-16T02:50:08;9.67;;;9.27;;
6197;SDS011;3132;42.622;23.328;2023-04-16T02:52:33;9.80;;;9.10;;
6197;SDS011;3132;42.622;23.328;2023-04-16T02:54:59;9.20;;;8.87;;
6197;SDS011;3132;42.622;23.328;2023-04-16T02:57:24;9.70;;;9.20;;
6197;SDS011;3132;42.622;23.328;2023-04-16T02:59:50;11.03;;;9.90;;
6197;SDS011;3132;42.622;23.328;2023-04-16T03:02:15;9.93;;;9.33;;
6197;SDS011;3132;42.622;23.328;2023-04-16T03:04:41;9.27;;;8.50;;
6197;SDS011;3132;42.622;23.328;2023-04-16T03:07:07;9.30;;;8.90;;
6197;SDS011;3132;42.622;23.328;2023-04-16T03:09:33;9.77;;;9.07;;
6197;SDS011;3132;42.622;23.328;2023-04-16T03:11:59;9.53;;;9.03;;
6197;SDS011;3132;42.622;23.328;2023-04-16T03:14:28;10.43;;;9.70;;
6197;SDS011;3132;42.622;23.328;2023-04-16T03:16:54;9.37;;;8.93;;
6197;SDS011;3132;42.622;23.328;2023-04-16T03:19:20;10.43;;;9.93;;
6197;SDS011;3132;42.622;23.328;2023-04-16T03:21:45;9.13;;;8.57;;
6197;SDS011;3132;42.622;23.328;2023-04-16T03:24:11;9.33;;;8.70;;
6197;SDS011;3132;42.622;23.328;2023-04-16T03:26:37;9.60;;;9.10;;
6197;SDS011;3132;42.622;23.328;2023-04-16T03:29:02;9.70;;;9.30;;
6197;SDS011;3132;42.622;23.328;2023-04-16T03:31:28;12.23;;;9.07;;
6197;SDS011;3132;42.622;23.328;2023-04-16T03:33:53;9.77;;;9.27;;
6197;SDS011;3132;42.622;23.328;2023-04-16T03:36:18;10.43;;;9.93;;
6197;SDS011;3132;42.622;23.328;2023-04-16T03:38:44;9.97;;;9.23;;
6197;SDS011;3132;42.622;23.328;2023-04-16T03:41:09;10.13;;;9.53;;
6197;SDS011;3132;42.622;23.328;2023-04-16T03:43:35;9.13;;;8.73;;
6197;SDS011;3132;42.622;23.328;2023-04-16T03:46:00;8.53;;;8.03;;
6197;SDS011;3132;42.622;23.328;2023-04-16T03:48:26;8.53;;;8.07;;
6197;SDS011;3132;42.622;23.328;2023-04-16T03:50:51;9.23;;;8.60;;
6197;SDS011;3132;42.622;23.328;2023-04-16T03:53:16;8.97;;;8.67;;
6197;SDS011;3132;42.622;23.328;2023-04-16T03:55:42;9.80;;;9.30;;
6197;SDS011;3132;42.622;23.328;2023-04-16T03:58:07;9.13;;;8.67;;
6197;SDS011;3132;42.622;23.328;2023-04-16T04:00:33;9.37;;;8.97;;
6197;SDS011;3132;42.622;23.328;2023-04-16T04:02:58;9.27;;;8.87;;
6197;SDS011;3132;42.622;23.328;2023-04-16T04:05:24;7.93;;;7.57;;
6197;SDS011;3132;42.622;23.328;2023-04-16T04:07:50;9.70;;;9.20;;
6197;SDS011;3132;42.622;23.328;2023-04-16T04:10:15;12.40;;;11.33;;
6197;SDS011;3132;42.622;23.328;2023-04-16T04:12:41;11.90;;;10.90;;
6197;SDS011;3132;42.622;23.328;2023-04-16T04:15:07;10.03;;;9.43;;
6197;SDS011;3132;42.622;23.328;2023-04-16T04:17:32;12.93;;;11.67;;
6197;SDS011;3132;42.622;23.328;2023-04-16T04:19:58;12.00;;;10.90;;
6197;SDS011;3132;42.622;23.328;2023-04-16T04:22:23;12.53;;;11.30;;
6197;SDS011;3132;42.622;23.328;2023-04-16T04:24:49;11.13;;;10.20;;
6197;SDS011;3132;42.622;23.328;2023-04-16T04:27:14;15.57;;;13.13;;
6197;SDS011;3132;42.622;23.328;2023-04-16T04:29:40;13.60;;;12.27;;
6197;SDS011;3132;42.622;23.328;2023-04-16T04:32:05;13.30;;;12.03;;
6197;SDS011;3132;42.622;23.328;2023-04-16T04:34:30;14.77;;;13.30;;
6197;SDS011;3132;42.622;23.328;2023-04-16T04:36:56;14.00;;;12.53;;
6197;SDS011;3132;42.622;23.328;2023-04-16T04:39:21;23.10;;;17.80;;
6197;SDS011;3132;42.622;23.328;2023-04-16T04:41:47;21.33;;;17.63;;
6197;SDS011;3132;42.622;23.328;2023-04-16T04:44:12;19.27;;;17.17;;
6197;SDS011;3132;42.622;23.328;2023-04-16T04:46:38;17.43;;;15.63;;
6197;SDS011;3132;42.622;23.328;2023-04-16T04:49:04;21.00;;;17.97;;
6197;SDS011;3132;42.622;23.328;2023-04-16T04:51:29;12.83;;;11.83;;
6197;SDS011;3132;42.622;23.328;2023-04-16T04:53:55;11.90;;;11.20;;
6197;SDS011;3132;42.622;23.328;2023-04-16T04:56:21;13.60;;;12.40;;
6197;SDS011;3132;42.622;23.328;2023-04-16T04:58:48;11.83;;;10.93;;
6197;SDS011;3132;42.622;23.328;2023-04-16T05:01:14;12.73;;;11.73;;
6197;SDS011;3132;42.622;23.328;2023-04-16T05:03:39;11.07;;;10.17;;
6197;SDS011;3132;42.622;23.328;2023-04-16T05:06:05;11.90;;;10.83;;
6197;SDS011;3132;42.622;23.328;2023-04-16T05:08:31;11.30;;;10.40;;
6197;SDS011;3132;42.622;23.328;2023-04-16T05:10:56;12.00;;;11.17;;
6197;SDS011;3132;42.622;23.328;2023-04-16T05:13:21;14.00;;;12.50;;
6197;SDS011;3132;42.622;23.328;2023-04-16T05:15:47;14.60;;;13.33;;
6197;SDS011;3132;42.622;23.328;2023-04-16T05:18:12;15.27;;;13.70;;
6197;SDS011;3132;42.622;23.328;2023-04-16T05:20:38;15.10;;;13.23;;
6197;SDS011;3132;42.622;23.328;2023-04-16T05:23:03;14.93;;;12.80;;
6197;SDS011;3132;42.622;23.328;2023-04-16T05:25:28;13.27;;;11.93;;
6197;SDS011;3132;42.622;23.328;2023-04-16T05:27:54;11.70;;;10.90;;
6197;SDS011;3132;42.622;23.328;2023-04-16T05:30:19;13.33;;;12.40;;
6197;SDS011;3132;42.622;23.328;2023-04-16T05:32:45;11.80;;;10.73;;
6197;SDS011;3132;42.622;23.328;2023-04-16T05:35:10;12.13;;;11.23;;
6197;SDS011;3132;42.622;23.328;2023-04-16T05:37:35;11.63;;;10.47;;
6197;SDS011;3132;42.622;23.328;2023-04-16T05:40:01;11.17;;;10.27;;
6197;SDS011;3132;42.622;23.328;2023-04-16T05:42:26;11.80;;;10.90;;
6197;SDS011;3132;42.622;23.328;2023-04-16T05:44:52;10.70;;;10.10;;
6197;SDS011;3132;42.622;23.328;2023-04-16T05:47:17;11.50;;;10.70;;
6197;SDS011;3132;42.622;23.328;2023-04-16T05:49:42;11.20;;;10.27;;
6197;SDS011;3132;42.622;23.328;2023-04-16T05:52:08;11.00;;;10.20;;
6197;SDS011;3132;42.622;23.328;2023-04-16T05:54:34;11.87;;;11.07;;
6197;SDS011;3132;42.622;23.328;2023-04-16T05:56:59;11.73;;;10.83;;
6197;SDS011;3132;42.622;23.328;2023-04-16T05:59:25;12.70;;;11.37;;
6197;SDS011;3132;42.622;23.328;2023-04-16T06:01:51;12.13;;;11.27;;
6197;SDS011;3132;42.622;23.328;2023-04-16T06:04:16;11.43;;;10.50;;
6197;SDS011;3132;42.622;23.328;2023-04-16T06:06:41;11.73;;;10.90;;
6197;SDS011;3132;42.622;23.328;2023-04-16T06:09:07;11.17;;;10.03;;
6197;SDS011;3132;42.622;23.328;2023-04-16T06:11:32;11.77;;;10.83;;
6197;SDS011;3132;42.622;23.328;2023-04-16T06:13:58;11.27;;;10.30;;
6197;SDS011;3132;42.622;23.328;2023-04-16T06:16:23;12.23;;;11.20;;
6197;SDS011;3132;42.622;23.328;2023-04-16T06:18:49;11.13;;;10.33;;
6197;SDS011;3132;42.622;23.328;2023-04-16T06:21:14;11.60;;;10.63;;
6197;SDS011;3132;42.622;23.328;2023-04-16T06:23:40;10.87;;;10.27;;
6197;SDS011;3132;42.622;23.328;2023-04-16T06:26:05;13.67;;;11.70;;
6197;SDS011;3132;42.622;23.328;2023-04-16T06:28:31;12.07;;;10.97;;
6197;SDS011;3132;42.622;23.328;2023-04-16T06:30:56;12.10;;;11.10;;
6197;SDS011;3132;42.622;23.328;2023-04-16T06:33:22;12.67;;;11.67;;
6197;SDS011;3132;42.622;23.328;2023-04-16T06:35:47;10.90;;;10.23;;
6197;SDS011;3132;42.622;23.328;2023-04-16T06:38:13;12.10;;;11.20;;
6197;SDS011;3132;42.622;23.328;2023-04-16T06:40:39;11.77;;;10.80;;
6197;SDS011;3132;42.622;23.328;2023-04-16T06:43:04;10.83;;;10.03;;
6197;SDS011;3132;42.622;23.328;2023-04-16T06:45:30;11.73;;;10.87;;
6197;SDS011;3132;42.622;23.328;2023-04-16T06:47:55;11.70;;;10.67;;
6197;SDS011;3132;42.622;23.328;2023-04-16T06:50:23;11.73;;;10.77;;
6197;SDS011;3132;42.622;23.328;2023-04-16T06:52:50;10.83;;;9.83;;
6197;SDS011;3132;42.622;23.328;2023-04-16T06:55:18;11.30;;;10.37;;
6197;SDS011;3132;42.622;23.328;2023-04-16T06:57:43;10.93;;;10.20;;
6197;SDS011;3132;42.622;23.328;2023-04-16T07:00:09;11.43;;;10.57;;
6197;SDS011;3132;42.622;23.328;2023-04-16T07:02:35;12.10;;;10.90;;
6197;SDS011;3132;42.622;23.328;2023-04-16T07:05:01;11.27;;;10.17;;
6197;SDS011;3132;42.622;23.328;2023-04-16T07:07:26;13.37;;;12.37;;
6197;SDS011;3132;42.622;23.328;2023-04-16T07:09:51;11.93;;;10.90;;
6197;SDS011;3132;42.622;23.328;2023-04-16T07:12:17;10.67;;;9.87;;
6197;SDS011;3132;42.622;23.328;2023-04-16T07:14:43;11.77;;;10.70;;
6197;SDS011;3132;42.622;23.328;2023-04-16T07:17:09;12.17;;;11.13;;
6197;SDS011;3132;42.622;23.328;2023-04-16T07:19:34;12.67;;;11.57;;
6197;SDS011;3132;42.622;23.328;2023-04-16T07:22:01;9.60;;;8.90;;
6197;SDS011;3132;42.622;23.328;2023-04-16T07:24:26;10.77;;;9.80;;
6197;SDS011;3132;42.622;23.328;2023-04-16T07:26:52;11.47;;;10.27;;
6197;SDS011;3132;42.622;23.328;2023-04-16T07:29:17;11.40;;;10.40;;
6197;SDS011;3132;42.622;23.328;2023-04-16T07:31:43;12.37;;;11.17;;
6197;SDS011;3132;42.622;23.328;2023-04-16T07:34:09;12.87;;;11.50;;
6197;SDS011;3132;42.622;23.328;2023-04-16T07:36:34;13.57;;;11.77;;
6197;SDS011;3132;42.622;23.328;2023-04-16T07:39:00;11.73;;;10.63;;
6197;SDS011;3132;42.622;23.328;2023-04-16T07:41:25;12.40;;;11.20;;
6197;SDS011;3132;42.622;23.328;2023-04-16T07:43:51;11.27;;;10.17;;
6197;SDS011;3132;42.622;23.328;2023-04-16T07:46:17;10.57;;;9.90;;
6197;SDS011;3132;42.622;23.328;2023-04-16T07:48:42;12.07;;;10.83;;
6197;SDS011;3132;42.622;23.328;2023-04-16T07:51:08;11.07;;;10.13;;
6197;SDS011;3132;42.622;23.328;2023-04-16T07:53:33;11.10;;;9.93;;
6197;SDS011;3132;42.622;23.328;2023-04-16T07:55:58;11.90;;;11.00;;
6197;SDS011;3132;42.622;23.328;2023-04-16T07:58:24;11.07;;;10.20;;
6197;SDS011;3132;42.622;23.328;2023-04-16T08:00:49;10.40;;;9.50;;
6197;SDS011;3132;42.622;23.328;2023-04-16T08:03:15;10.97;;;10.03;;
6197;SDS011;3132;42.622;23.328;2023-04-16T08:05:41;12.00;;;10.80;;
6197;SDS011;3132;42.622;23.328;2023-04-16T08:08:07;11.53;;;10.40;;
6197;SDS011;3132;42.622;23.328;2023-04-16T08:10:32;10.50;;;9.60;;
6197;SDS011;3132;42.622;23.328;2023-04-16T08:12:59;10.37;;;9.67;;
6197;SDS011;3132;42.622;23.328;2023-04-16T08:15:25;10.53;;;9.70;;
6197;SDS011;3132;42.622;23.328;2023-04-16T08:17:51;10.87;;;9.97;;
6197;SDS011;3132;42.622;23.328;2023-04-16T08:20:16;10.73;;;9.70;;
6197;SDS011;3132;42.622;23.328;2023-04-16T08:22:42;13.87;;;9.77;;
6197;SDS011;3132;42.622;23.328;2023-04-16T08:25:08;11.70;;;10.83;;
6197;SDS011;3132;42.622;23.328;2023-04-16T08:27:34;11.47;;;10.57;;
6197;SDS011;3132;42.622;23.328;2023-04-16T08:29:59;10.90;;;9.90;;
6197;SDS011;3132;42.622;23.328;2023-04-16T08:32:25;10.87;;;10.03;;
6197;SDS011;3132;42.622;23.328;2023-04-16T08:34:51;11.50;;;10.53;;
6197;SDS011;3132;42.622;23.328;2023-04-16T08:37:16;11.40;;;10.20;;
6197;SDS011;3132;42.622;23.328;2023-04-16T08:39:41;9.87;;;9.30;;
6197;SDS011;3132;42.622;23.328;2023-04-16T08:42:22;11.23;;;10.40;;
6197;SDS011;3132;42.622;23.328;2023-04-16T08:44:54;11.20;;;10.10;;
6197;SDS011;3132;42.622;23.328;2023-04-16T08:47:30;13.03;;;11.93;;
6197;SDS011;3132;42.622;23.328;2023-04-16T08:49:59;10.60;;;9.93;;
6197;SDS011;3132;42.622;23.328;2023-04-16T08:52:27;11.43;;;10.43;;
6197;SDS011;3132;42.622;23.328;2023-04-16T08:55:03;11.10;;;9.97;;
6197;SDS011;3132;42.622;23.328;2023-04-16T08:57:53;11.03;;;10.03;;
6197;SDS011;3132;42.622;23.328;2023-04-16T09:00:21;10.43;;;9.73;;
6197;SDS011;3132;42.622;23.328;2023-04-16T09:02:48;10.57;;;9.93;;
6197;SDS011;3132;42.622;23.328;2023-04-16T09:05:15;11.00;;;10.17;;
6197;SDS011;3132;42.622;23.328;2023-04-16T09:07:43;10.77;;;9.97;;
6197;SDS011;3132;42.622;23.328;2023-04-16T09:10:10;11.17;;;10.37;;
6197;SDS011;3132;42.622;23.328;2023-04-16T09:12:36;10.67;;;9.97;;
6197;SDS011;3132;42.622;23.328;2023-04-16T09:15:03;9.53;;;9.03;;
6197;SDS011;3132;42.622;23.328;2023-04-16T09:17:30;9.60;;;9.03;;
6197;SDS011;3132;42.622;23.328;2023-04-16T09:19:55;10.07;;;9.43;;
6197;SDS011;3132;42.622;23.328;2023-04-16T09:22:21;10.47;;;9.73;;
6197;SDS011;3132;42.622;23.328;2023-04-16T09:24:46;9.80;;;9.10;;
6197;SDS011;3132;42.622;23.328;2023-04-16T09:27:12;9.10;;;8.40;;
6197;SDS011;3132;42.622;23.328;2023-04-16T09:29:38;9.40;;;8.83;;
6197;SDS011;3132;42.622;23.328;2023-04-16T09:32:05;10.00;;;9.17;;
6197;SDS011;3132;42.622;23.328;2023-04-16T09:34:32;9.30;;;8.57;;
6197;SDS011;3132;42.622;23.328;2023-04-16T09:37:15;8.97;;;8.47;;
6197;SDS011;3132;42.622;23.328;2023-04-16T09:39:42;8.90;;;8.37;;
6197;SDS011;3132;42.622;23.328;2023-04-16T09:42:08;9.40;;;8.73;;
6197;SDS011;3132;42.622;23.328;2023-04-16T09:44:37;9.07;;;8.47;;
6197;SDS011;3132;42.622;23.328;2023-04-16T09:47:06;8.47;;;7.83;;
6197;SDS011;3132;42.622;23.328;2023-04-16T09:49:34;9.43;;;8.87;;
6197;SDS011;3132;42.622;23.328;2023-04-16T09:52:07;9.07;;;7.63;;
6197;SDS011;3132;42.622;23.328;2023-04-16T09:54:38;8.30;;;7.73;;
6197;SDS011;3132;42.622;23.328;2023-04-16T09:57:06;10.60;;;9.87;;
6197;SDS011;3132;42.622;23.328;2023-04-16T09:59:34;12.17;;;10.97;;
6197;SDS011;3132;42.622;23.328;2023-04-16T10:02:00;10.23;;;9.43;;
6197;SDS011;3132;42.622;23.328;2023-04-16T10:04:26;10.30;;;9.40;;
6197;SDS011;3132;42.622;23.328;2023-04-16T10:07:04;10.57;;;9.67;;
6197;SDS011;3132;42.622;23.328;2023-04-16T10:09:30;9.87;;;9.20;;
6197;SDS011;3132;42.622;23.328;2023-04-16T10:11:57;9.47;;;8.77;;
6197;SDS011;3132;42.622;23.328;2023-04-16T10:14:22;10.53;;;9.70;;
6197;SDS011;3132;42.622;23.328;2023-04-16T10:16:48;9.23;;;8.53;;
6197;SDS011;3132;42.622;23.328;2023-04-16T10:19:14;8.97;;;8.47;;
6197;SDS011;3132;42.622;23.328;2023-04-16T10:21:40;11.27;;;9.60;;
6197;SDS011;3132;42.622;23.328;2023-04-16T10:24:06;9.97;;;9.10;;
6197;SDS011;3132;42.622;23.328;2023-04-16T10:26:32;9.80;;;9.23;;
6197;SDS011;3132;42.622;23.328;2023-04-16T10:28:59;9.30;;;8.63;;
6197;SDS011;3132;42.622;23.328;2023-04-16T10:31:26;8.77;;;8.17;;
6197;SDS011;3132;42.622;23.328;2023-04-16T10:33:53;10.40;;;9.63;;
6197;SDS011;3132;42.622;23.328;2023-04-16T10:36:23;9.97;;;8.97;;
6197;SDS011;3132;42.622;23.328;2023-04-16T10:38:51;10.10;;;9.07;;
6197;SDS011;3132;42.622;23.328;2023-04-16T10:41:18;9.77;;;8.93;;
6197;SDS011;3132;42.622;23.328;2023-04-16T10:43:49;9.13;;;8.43;;
6197;SDS011;3132;42.622;23.328;2023-04-16T10:48:54;9.07;;;8.50;;
6197;SDS011;3132;42.622;23.328;2023-04-16T10:51:25;9.87;;;9.27;;
6197;SDS011;3132;42.622;23.328;2023-04-16T10:53:52;8.63;;;8.10;;
6197;SDS011;3132;42.622;23.328;2023-04-16T10:56:22;8.87;;;8.17;;
6197;SDS011;3132;42.622;23.328;2023-04-16T10:58:52;9.13;;;8.47;;
6197;SDS011;3132;42.622;23.328;2023-04-16T11:01:26;9.27;;;8.57;;
6197;SDS011;3132;42.622;23.328;2023-04-16T11:03:54;8.43;;;7.73;;
6197;SDS011;3132;42.622;23.328;2023-04-16T11:06:24;8.80;;;8.17;;
6197;SDS011;3132;42.622;23.328;2023-04-16T11:08:51;9.03;;;8.30;;
6197;SDS011;3132;42.622;23.328;2023-04-16T11:11:17;9.83;;;9.07;;
6197;SDS011;3132;42.622;23.328;2023-04-16T11:13:43;9.57;;;9.07;;
6197;SDS011;3132;42.622;23.328;2023-04-16T11:16:13;9.53;;;8.63;;
6197;SDS011;3132;42.622;23.328;2023-04-16T11:18:39;7.83;;;7.37;;
6197;SDS011;3132;42.622;23.328;2023-04-16T11:21:08;8.40;;;7.80;;
6197;SDS011;3132;42.622;23.328;2023-04-16T11:23:48;9.13;;;8.50;;
6197;SDS011;3132;42.622;23.328;2023-04-16T11:26:27;10.43;;;9.60;;
6197;SDS011;3132;42.622;23.328;2023-04-16T11:28:53;9.53;;;8.70;;
6197;SDS011;3132;42.622;23.328;2023-04-16T11:31:24;10.17;;;9.43;;
6197;SDS011;3132;42.622;23.328;2023-04-16T11:33:51;8.87;;;8.27;;
6197;SDS011;3132;42.622;23.328;2023-04-16T11:36:16;9.13;;;8.47;;
6197;SDS011;3132;42.622;23.328;2023-04-16T11:38:41;9.30;;;8.50;;
6197;SDS011;3132;42.622;23.328;2023-04-16T11:41:07;8.37;;;7.87;;
6197;SDS011;3132;42.622;23.328;2023-04-16T11:43:34;9.10;;;8.67;;
6197;SDS011;3132;42.622;23.328;2023-04-16T11:46:01;8.80;;;8.13;;
6197;SDS011;3132;42.622;23.328;2023-04-16T11:51:14;8.67;;;8.13;;
6197;SDS011;3132;42.622;23.328;2023-04-16T11:53:50;8.67;;;8.17;;
6197;SDS011;3132;42.622;23.328;2023-04-16T11:56:25;9.50;;;8.70;;
6197;SDS011;3132;42.622;23.328;2023-04-16T12:01:57;9.33;;;8.53;;
6197;SDS011;3132;42.622;23.328;2023-04-16T12:04:23;9.30;;;8.37;;
6197;SDS011;3132;42.622;23.328;2023-04-16T12:07:03;8.50;;;8.00;;
6197;SDS011;3132;42.622;23.328;2023-04-16T12:09:37;9.07;;;8.17;;
6197;SDS011;3132;42.622;23.328;2023-04-16T12:12:04;8.77;;;8.10;;
6197;SDS011;3132;42.622;23.328;2023-04-16T12:14:30;9.63;;;9.00;;
6197;SDS011;3132;42.622;23.328;2023-04-16T12:16:56;9.97;;;9.27;;
6197;SDS011;3132;42.622;23.328;2023-04-16T12:22:43;9.03;;;8.23;;
6197;SDS011;3132;42.622;23.328;2023-04-16T12:25:14;9.03;;;8.43;;
6197;SDS011;3132;42.622;23.328;2023-04-16T12:27:44;10.03;;;8.53;;
6197;SDS011;3132;42.622;23.328;2023-04-16T12:30:10;9.23;;;8.60;;
6197;SDS011;3132;42.622;23.328;2023-04-16T12:32:37;10.03;;;8.83;;
6197;SDS011;3132;42.622;23.328;2023-04-16T12:35:03;10.20;;;9.27;;
6197;SDS011;3132;42.622;23.328;2023-04-16T12:37:29;9.70;;;8.80;;
6197;SDS011;3132;42.622;23.328;2023-04-16T12:39:54;9.23;;;8.37;;
6197;SDS011;3132;42.622;23.328;2023-04-16T12:42:20;10.50;;;9.60;;
6197;SDS011;3132;42.622;23.328;2023-04-16T12:44:46;9.43;;;8.73;;
6197;SDS011;3132;42.622;23.328;2023-04-16T12:47:11;9.20;;;8.63;;
6197;SDS011;3132;42.622;23.328;2023-04-16T12:49:36;8.73;;;7.93;;
6197;SDS011;3132;42.622;23.328;2023-04-16T12:52:02;9.37;;;8.63;;
6197;SDS011;3132;42.622;23.328;2023-04-16T12:54:28;8.87;;;8.27;;
6197;SDS011;3132;42.622;23.328;2023-04-16T12:56:55;9.60;;;8.87;;
6197;SDS011;3132;42.622;23.328;2023-04-16T12:59:20;9.60;;;9.00;;
6197;SDS011;3132;42.622;23.328;2023-04-16T13:01:46;9.97;;;9.27;;
6197;SDS011;3132;42.622;23.328;2023-04-16T13:04:11;8.73;;;8.23;;
6197;SDS011;3132;42.622;23.328;2023-04-16T13:06:37;9.87;;;9.27;;
6197;SDS011;3132;42.622;23.328;2023-04-16T13:09:02;8.60;;;7.80;;
6197;SDS011;3132;42.622;23.328;2023-04-16T13:11:28;8.70;;;8.10;;
6197;SDS011;3132;42.622;23.328;2023-04-16T13:13:54;8.20;;;7.63;;
6197;SDS011;3132;42.622;23.328;2023-04-16T13:16:19;8.77;;;8.17;;
6197;SDS011;3132;42.622;23.328;2023-04-16T13:18:45;9.93;;;8.97;;
6197;SDS011;3132;42.622;23.328;2023-04-16T13:21:10;8.80;;;7.97;;
6197;SDS011;3132;42.622;23.328;2023-04-16T13:23:36;8.07;;;7.63;;
6197;SDS011;3132;42.622;23.328;2023-04-16T13:26:01;8.80;;;8.30;;
6197;SDS011;3132;42.622;23.328;2023-04-16T13:28:27;9.60;;;8.60;;
6197;SDS011;3132;42.622;23.328;2023-04-16T13:30:52;10.10;;;9.37;;
6197;SDS011;3132;42.622;23.328;2023-04-16T13:33:18;9.50;;;8.47;;
6197;SDS011;3132;42.622;23.328;2023-04-16T13:35:44;10.53;;;9.83;;
6197;SDS011;3132;42.622;23.328;2023-04-16T13:38:10;9.50;;;8.90;;
6197;SDS011;3132;42.622;23.328;2023-04-16T13:40:36;8.70;;;8.20;;
6197;SDS011;3132;42.622;23.328;2023-04-16T13:43:01;10.57;;;9.77;;
6197;SDS011;3132;42.622;23.328;2023-04-16T13:45:27;9.20;;;8.70;;
6197;SDS011;3132;42.622;23.328;2023-04-16T13:47:53;9.30;;;8.80;;
6197;SDS011;3132;42.622;23.328;2023-04-16T13:50:19;9.93;;;9.33;;
6197;SDS011;3132;42.622;23.328;2023-04-16T13:52:45;8.70;;;8.20;;
6197;SDS011;3132;42.622;23.328;2023-04-16T13:55:10;8.57;;;7.97;;
6197;SDS011;3132;42.622;23.328;2023-04-16T13:57:38;8.47;;;7.67;;
6197;SDS011;3132;42.622;23.328;2023-04-16T14:00:05;9.23;;;8.70;;
6197;SDS011;3132;42.622;23.328;2023-04-16T14:02:31;8.50;;;8.03;;
6197;SDS011;3132;42.622;23.328;2023-04-16T14:04:57;9.53;;;8.87;;
6197;SDS011;3132;42.622;23.328;2023-04-16T14:07:22;8.43;;;8.03;;
6197;SDS011;3132;42.622;23.328;2023-04-16T14:09:50;8.60;;;8.10;;
6197;SDS011;3132;42.622;23.328;2023-04-16T14:12:16;7.93;;;7.53;;
6197;SDS011;3132;42.622;23.328;2023-04-16T14:14:41;9.90;;;9.20;;
6197;SDS011;3132;42.622;23.328;2023-04-16T14:17:07;8.83;;;8.30;;
6197;SDS011;3132;42.622;23.328;2023-04-16T14:19:32;9.33;;;8.67;;
6197;SDS011;3132;42.622;23.328;2023-04-16T14:21:57;9.60;;;8.67;;
6197;SDS011;3132;42.622;23.328;2023-04-16T14:24:23;9.90;;;9.30;;
6197;SDS011;3132;42.622;23.328;2023-04-16T14:26:48;10.23;;;9.50;;
6197;SDS011;3132;42.622;23.328;2023-04-16T14:29:13;9.07;;;8.57;;
6197;SDS011;3132;42.622;23.328;2023-04-16T14:31:39;8.70;;;8.20;;
6197;SDS011;3132;42.622;23.328;2023-04-16T14:34:04;9.57;;;8.83;;
6197;SDS011;3132;42.622;23.328;2023-04-16T14:36:30;9.27;;;8.67;;
6197;SDS011;3132;42.622;23.328;2023-04-16T14:38:55;7.83;;;7.13;;
6197;SDS011;3132;42.622;23.328;2023-04-16T14:41:21;7.60;;;7.20;;
6197;SDS011;3132;42.622;23.328;2023-04-16T14:43:46;8.20;;;7.60;;
6197;SDS011;3132;42.622;23.328;2023-04-16T14:46:11;9.33;;;8.83;;
6197;SDS011;3132;42.622;23.328;2023-04-16T14:48:37;7.97;;;7.47;;
6197;SDS011;3132;42.622;23.328;2023-04-16T14:51:02;9.47;;;8.77;;
6197;SDS011;3132;42.622;23.328;2023-04-16T14:53:28;9.17;;;8.57;;
6197;SDS011;3132;42.622;23.328;2023-04-16T14:55:53;9.93;;;8.93;;